sensor_id;sensor_type;location;lat;lon;timestamp;P1;durP1;ratioP1;P2;durP2;ratioP2
14817;SDS011;7500;57.698;11.986;2022-07-04T00:01:42;6.97;;;6.27;;
14817;SDS011;7500;57.698;11.986;2022-07-04T00:04:10;12.50;;;8.13;;
14817;SDS011;7500;57.698;11.986;2022-07-04T00:06:37;9.63;;;8.83;;
14817;SDS011;7500;57.698;11.986;2022-07-04T00:09:04;11.07;;;9.93;;
14817;SDS011;7500;57.698;11.986;2022-07-04T00:11:30;24.60;;;13.70;;
14817;SDS011;7500;57.698;11.986;2022-07-04T00:13:57;15.10;;;13.43;;
14817;SDS011;7500;57.698;11.986;2022-07-04T00:16:24;17.83;;;16.03;;
14817;SDS011;7500;57.698;11.986;2022-07-04T00:18:51;14.10;;;12.63;;
14817;SDS011;7500;57.698;11.986;2022-07-04T00:21:19;21.80;;;11.87;;
14817;SDS011;7500;57.698;11.986;2022-07-04T00:23:46;28.07;;;16.67;;
14817;SDS011;7500;57.698;11.986;2022-07-04T00:26:13;18.20;;;14.23;;
14817;SDS011;7500;57.698;11.986;2022-07-04T00:28:41;13.37;;;11.97;;
14817;SDS011;7500;57.698;11.986;2022-07-04T00:31:08;20.73;;;9.73;;
14817;SDS011;7500;57.698;11.986;2022-07-04T00:33:34;32.27;;;14.70;;
14817;SDS011;7500;57.698;11.986;2022-07-04T00:36:01;19.03;;;10.20;;
14817;SDS011;7500;57.698;11.986;2022-07-04T00:38:30;21.37;;;10.27;;
14817;SDS011;7500;57.698;11.986;2022-07-04T00:40:57;16.40;;;7.50;;
14817;SDS011;7500;57.698;11.986;2022-07-04T00:43:24;18.57;;;8.13;;
14817;SDS011;7500;57.698;11.986;2022-07-04T00:45:51;22.90;;;7.90;;
14817;SDS011;7500;57.698;11.986;2022-07-04T00:48:18;12.27;;;6.63;;
14817;SDS011;7500;57.698;11.986;2022-07-04T00:50:45;19.73;;;9.13;;
14817;SDS011;7500;57.698;11.986;2022-07-04T00:53:13;20.63;;;8.97;;
14817;SDS011;7500;57.698;11.986;2022-07-04T00:55:41;20.00;;;7.87;;
14817;SDS011;7500;57.698;11.986;2022-07-04T00:58:08;21.90;;;7.77;;
14817;SDS011;7500;57.698;11.986;2022-07-04T01:00:36;16.33;;;7.30;;
14817;SDS011;7500;57.698;11.986;2022-07-04T01:03:03;19.53;;;8.23;;
14817;SDS011;7500;57.698;11.986;2022-07-04T01:05:29;27.93;;;9.97;;
14817;SDS011;7500;57.698;11.986;2022-07-04T01:07:57;28.40;;;10.30;;
14817;SDS011;7500;57.698;11.986;2022-07-04T01:10:24;24.73;;;10.13;;
14817;SDS011;7500;57.698;11.986;2022-07-04T01:12:53;19.23;;;8.23;;
14817;SDS011;7500;57.698;11.986;2022-07-04T01:15:20;21.90;;;8.73;;
14817;SDS011;7500;57.698;11.986;2022-07-04T01:17:48;19.90;;;7.53;;
14817;SDS011;7500;57.698;11.986;2022-07-04T01:20:16;18.70;;;8.30;;
14817;SDS011;7500;57.698;11.986;2022-07-04T01:22:43;20.03;;;7.67;;
14817;SDS011;7500;57.698;11.986;2022-07-04T01:25:10;13.33;;;5.70;;
14817;SDS011;7500;57.698;11.986;2022-07-04T01:27:39;19.30;;;6.97;;
14817;SDS011;7500;57.698;11.986;2022-07-04T01:30:06;14.67;;;5.10;;
14817;SDS011;7500;57.698;11.986;2022-07-04T01:32:34;16.03;;;4.93;;
14817;SDS011;7500;57.698;11.986;2022-07-04T01:35:00;12.00;;;4.80;;
14817;SDS011;7500;57.698;11.986;2022-07-04T01:37:29;9.30;;;4.70;;
14817;SDS011;7500;57.698;11.986;2022-07-04T01:39:55;13.40;;;4.63;;
14817;SDS011;7500;57.698;11.986;2022-07-04T01:42:22;14.27;;;4.00;;
14817;SDS011;7500;57.698;11.986;2022-07-04T01:44:49;13.03;;;3.53;;
14817;SDS011;7500;57.698;11.986;2022-07-04T01:47:16;13.63;;;3.30;;
14817;SDS011;7500;57.698;11.986;2022-07-04T01:49:42;12.87;;;3.10;;
14817;SDS011;7500;57.698;11.986;2022-07-04T01:52:09;15.93;;;3.37;;
14817;SDS011;7500;57.698;11.986;2022-07-04T01:54:37;12.83;;;2.80;;
14817;SDS011;7500;57.698;11.986;2022-07-04T01:57:04;13.70;;;4.33;;
14817;SDS011;7500;57.698;11.986;2022-07-04T01:59:32;13.93;;;4.07;;
14817;SDS011;7500;57.698;11.986;2022-07-04T02:02:27;13.67;;;2.90;;
14817;SDS011;7500;57.698;11.986;2022-07-04T02:04:54;11.10;;;2.17;;
14817;SDS011;7500;57.698;11.986;2022-07-04T02:07:21;14.47;;;3.43;;
14817;SDS011;7500;57.698;11.986;2022-07-04T02:09:49;10.57;;;3.00;;
14817;SDS011;7500;57.698;11.986;2022-07-04T02:12:17;9.30;;;2.70;;
14817;SDS011;7500;57.698;11.986;2022-07-04T02:15:01;12.67;;;2.87;;
14817;SDS011;7500;57.698;11.986;2022-07-04T02:17:28;12.07;;;3.10;;
14817;SDS011;7500;57.698;11.986;2022-07-04T02:19:55;13.17;;;3.10;;
14817;SDS011;7500;57.698;11.986;2022-07-04T02:22:22;10.33;;;3.53;;
14817;SDS011;7500;57.698;11.986;2022-07-04T02:24:50;11.30;;;3.13;;
14817;SDS011;7500;57.698;11.986;2022-07-04T02:27:17;13.43;;;3.30;;
14817;SDS011;7500;57.698;11.986;2022-07-04T02:29:44;11.73;;;2.90;;
14817;SDS011;7500;57.698;11.986;2022-07-04T02:32:10;11.87;;;3.27;;
14817;SDS011;7500;57.698;11.986;2022-07-04T02:34:37;9.27;;;2.87;;
14817;SDS011;7500;57.698;11.986;2022-07-04T02:37:04;11.07;;;3.50;;
14817;SDS011;7500;57.698;11.986;2022-07-04T02:39:31;12.33;;;3.70;;
14817;SDS011;7500;57.698;11.986;2022-07-04T02:41:59;9.87;;;3.20;;
14817;SDS011;7500;57.698;11.986;2022-07-04T02:44:26;13.17;;;4.07;;
14817;SDS011;7500;57.698;11.986;2022-07-04T02:46:53;10.37;;;3.20;;
14817;SDS011;7500;57.698;11.986;2022-07-04T02:49:20;11.17;;;3.30;;
14817;SDS011;7500;57.698;11.986;2022-07-04T02:51:47;10.80;;;2.80;;
14817;SDS011;7500;57.698;11.986;2022-07-04T02:54:14;12.50;;;3.30;;
14817;SDS011;7500;57.698;11.986;2022-07-04T02:56:41;8.68;;;2.70;;
14817;SDS011;7500;57.698;11.986;2022-07-04T02:59:10;10.47;;;2.90;;
14817;SDS011;7500;57.698;11.986;2022-07-04T03:01:36;8.43;;;2.93;;
14817;SDS011;7500;57.698;11.986;2022-07-04T03:04:03;9.87;;;3.27;;
14817;SDS011;7500;57.698;11.986;2022-07-04T03:06:30;10.33;;;3.20;;
14817;SDS011;7500;57.698;11.986;2022-07-04T03:08:57;7.37;;;2.70;;
14817;SDS011;7500;57.698;11.986;2022-07-04T03:11:24;14.20;;;3.87;;
14817;SDS011;7500;57.698;11.986;2022-07-04T03:13:51;13.07;;;3.20;;
14817;SDS011;7500;57.698;11.986;2022-07-04T03:16:19;11.40;;;3.20;;
14817;SDS011;7500;57.698;11.986;2022-07-04T03:18:46;9.07;;;2.93;;
14817;SDS011;7500;57.698;11.986;2022-07-04T03:21:12;14.37;;;3.20;;
14817;SDS011;7500;57.698;11.986;2022-07-04T03:23:39;11.17;;;2.90;;
14817;SDS011;7500;57.698;11.986;2022-07-04T03:26:06;9.53;;;3.17;;
14817;SDS011;7500;57.698;11.986;2022-07-04T03:28:33;9.43;;;4.03;;
14817;SDS011;7500;57.698;11.986;2022-07-04T03:31:00;13.40;;;3.70;;
14817;SDS011;7500;57.698;11.986;2022-07-04T03:33:28;10.57;;;4.00;;
14817;SDS011;7500;57.698;11.986;2022-07-04T03:35:55;11.40;;;4.33;;
14817;SDS011;7500;57.698;11.986;2022-07-04T03:38:22;8.73;;;3.20;;
14817;SDS011;7500;57.698;11.986;2022-07-04T03:40:48;11.20;;;3.47;;
14817;SDS011;7500;57.698;11.986;2022-07-04T03:43:15;9.20;;;3.17;;
14817;SDS011;7500;57.698;11.986;2022-07-04T03:45:42;7.87;;;2.80;;
14817;SDS011;7500;57.698;11.986;2022-07-04T03:48:09;10.50;;;3.13;;
14817;SDS011;7500;57.698;11.986;2022-07-04T03:50:37;11.57;;;4.30;;
14817;SDS011;7500;57.698;11.986;2022-07-04T03:53:04;7.47;;;2.20;;
14817;SDS011;7500;57.698;11.986;2022-07-04T03:55:31;10.57;;;3.03;;
14817;SDS011;7500;57.698;11.986;2022-07-04T03:57:58;5.67;;;3.53;;
14817;SDS011;7500;57.698;11.986;2022-07-04T04:00:26;8.83;;;3.30;;
14817;SDS011;7500;57.698;11.986;2022-07-04T04:02:53;6.90;;;4.00;;
14817;SDS011;7500;57.698;11.986;2022-07-04T04:05:19;6.33;;;3.10;;
14817;SDS011;7500;57.698;11.986;2022-07-04T04:07:53;7.10;;;3.00;;
14817;SDS011;7500;57.698;11.986;2022-07-04T04:10:21;7.40;;;3.50;;
14817;SDS011;7500;57.698;11.986;2022-07-04T04:12:48;8.53;;;3.20;;
14817;SDS011;7500;57.698;11.986;2022-07-04T04:15:15;8.00;;;2.80;;
14817;SDS011;7500;57.698;11.986;2022-07-04T04:17:42;9.50;;;2.83;;
14817;SDS011;7500;57.698;11.986;2022-07-04T04:20:09;10.00;;;3.00;;
14817;SDS011;7500;57.698;11.986;2022-07-04T04:22:35;6.00;;;2.87;;
14817;SDS011;7500;57.698;11.986;2022-07-04T04:25:04;8.57;;;3.60;;
14817;SDS011;7500;57.698;11.986;2022-07-04T04:27:32;8.60;;;3.20;;
14817;SDS011;7500;57.698;11.986;2022-07-04T04:29:59;8.60;;;3.60;;
14817;SDS011;7500;57.698;11.986;2022-07-04T04:32:26;9.63;;;3.67;;
14817;SDS011;7500;57.698;11.986;2022-07-04T04:34:52;8.63;;;4.20;;
14817;SDS011;7500;57.698;11.986;2022-07-04T04:37:19;9.83;;;3.57;;
14817;SDS011;7500;57.698;11.986;2022-07-04T04:39:46;10.30;;;3.67;;
14817;SDS011;7500;57.698;11.986;2022-07-04T04:42:14;6.93;;;3.73;;
14817;SDS011;7500;57.698;11.986;2022-07-04T04:44:41;8.23;;;3.50;;
14817;SDS011;7500;57.698;11.986;2022-07-04T04:47:08;10.40;;;3.77;;
14817;SDS011;7500;57.698;11.986;2022-07-04T04:49:35;10.07;;;3.37;;
14817;SDS011;7500;57.698;11.986;2022-07-04T04:52:02;10.32;;;4.07;;
14817;SDS011;7500;57.698;11.986;2022-07-04T04:54:31;8.00;;;3.30;;
14817;SDS011;7500;57.698;11.986;2022-07-04T04:56:58;8.47;;;3.80;;
14817;SDS011;7500;57.698;11.986;2022-07-04T04:59:26;7.77;;;3.80;;
14817;SDS011;7500;57.698;11.986;2022-07-04T05:01:54;10.90;;;4.37;;
14817;SDS011;7500;57.698;11.986;2022-07-04T05:04:21;11.13;;;4.37;;
14817;SDS011;7500;57.698;11.986;2022-07-04T05:06:48;12.47;;;5.60;;
14817;SDS011;7500;57.698;11.986;2022-07-04T05:09:15;33.73;;;7.60;;
14817;SDS011;7500;57.698;11.986;2022-07-04T05:11:42;37.17;;;8.90;;
14817;SDS011;7500;57.698;11.986;2022-07-04T05:14:09;11.33;;;7.40;;
14817;SDS011;7500;57.698;11.986;2022-07-04T05:16:37;13.57;;;7.03;;
14817;SDS011;7500;57.698;11.986;2022-07-04T05:19:04;14.80;;;6.43;;
14817;SDS011;7500;57.698;11.986;2022-07-04T05:21:31;15.20;;;6.57;;
14817;SDS011;7500;57.698;11.986;2022-07-04T05:23:57;13.50;;;6.90;;
14817;SDS011;7500;57.698;11.986;2022-07-04T05:26:24;16.93;;;7.83;;
14817;SDS011;7500;57.698;11.986;2022-07-04T05:28:52;20.30;;;11.00;;
14817;SDS011;7500;57.698;11.986;2022-07-04T05:31:20;13.90;;;9.00;;
14817;SDS011;7500;57.698;11.986;2022-07-04T05:33:50;16.43;;;8.70;;
14817;SDS011;7500;57.698;11.986;2022-07-04T05:36:18;12.77;;;6.70;;
14817;SDS011;7500;57.698;11.986;2022-07-04T05:38:45;9.67;;;5.67;;
14817;SDS011;7500;57.698;11.986;2022-07-04T05:41:12;8.30;;;6.03;;
14817;SDS011;7500;57.698;11.986;2022-07-04T05:43:39;10.07;;;5.43;;
14817;SDS011;7500;57.698;11.986;2022-07-04T05:46:06;8.23;;;5.37;;
14817;SDS011;7500;57.698;11.986;2022-07-04T05:48:33;9.27;;;5.97;;
14817;SDS011;7500;57.698;11.986;2022-07-04T05:51:01;12.57;;;7.97;;
14817;SDS011;7500;57.698;11.986;2022-07-04T05:53:28;18.77;;;10.23;;
14817;SDS011;7500;57.698;11.986;2022-07-04T05:55:55;12.90;;;6.13;;
14817;SDS011;7500;57.698;11.986;2022-07-04T05:58:22;8.30;;;4.83;;
14817;SDS011;7500;57.698;11.986;2022-07-04T06:00:49;7.73;;;4.20;;
14817;SDS011;7500;57.698;11.986;2022-07-04T06:03:16;10.27;;;5.30;;
14817;SDS011;7500;57.698;11.986;2022-07-04T06:05:43;8.60;;;4.50;;
14817;SDS011;7500;57.698;11.986;2022-07-04T06:08:11;8.70;;;5.97;;
14817;SDS011;7500;57.698;11.986;2022-07-04T06:10:38;9.43;;;4.00;;
14817;SDS011;7500;57.698;11.986;2022-07-04T06:13:05;7.90;;;5.23;;
14817;SDS011;7500;57.698;11.986;2022-07-04T06:15:32;8.93;;;3.10;;
14817;SDS011;7500;57.698;11.986;2022-07-04T06:17:59;5.83;;;3.40;;
14817;SDS011;7500;57.698;11.986;2022-07-04T06:20:27;9.07;;;4.07;;
14817;SDS011;7500;57.698;11.986;2022-07-04T06:22:54;8.80;;;5.00;;
14817;SDS011;7500;57.698;11.986;2022-07-04T06:25:23;9.37;;;3.47;;
14817;SDS011;7500;57.698;11.986;2022-07-04T06:27:50;8.07;;;3.47;;
14817;SDS011;7500;57.698;11.986;2022-07-04T06:30:17;10.10;;;4.50;;
14817;SDS011;7500;57.698;11.986;2022-07-04T06:32:46;8.50;;;3.40;;
14817;SDS011;7500;57.698;11.986;2022-07-04T06:35:14;9.17;;;4.10;;
14817;SDS011;7500;57.698;11.986;2022-07-04T06:38:02;7.17;;;3.00;;
14817;SDS011;7500;57.698;11.986;2022-07-04T06:40:30;6.67;;;4.53;;
14817;SDS011;7500;57.698;11.986;2022-07-04T06:42:58;5.60;;;3.33;;
14817;SDS011;7500;57.698;11.986;2022-07-04T06:45:25;6.37;;;4.13;;
14817;SDS011;7500;57.698;11.986;2022-07-04T06:47:51;9.03;;;3.60;;
14817;SDS011;7500;57.698;11.986;2022-07-04T06:50:18;6.17;;;3.37;;
14817;SDS011;7500;57.698;11.986;2022-07-04T06:52:45;9.23;;;3.53;;
14817;SDS011;7500;57.698;11.986;2022-07-04T06:55:12;7.07;;;3.47;;
14817;SDS011;7500;57.698;11.986;2022-07-04T06:57:41;7.67;;;2.87;;
14817;SDS011;7500;57.698;11.986;2022-07-04T07:00:08;7.10;;;3.40;;
14817;SDS011;7500;57.698;11.986;2022-07-04T07:02:36;5.40;;;2.87;;
14817;SDS011;7500;57.698;11.986;2022-07-04T07:05:04;7.50;;;2.70;;
14817;SDS011;7500;57.698;11.986;2022-07-04T07:07:32;7.93;;;2.90;;
14817;SDS011;7500;57.698;11.986;2022-07-04T07:09:59;6.87;;;2.50;;
14817;SDS011;7500;57.698;11.986;2022-07-04T07:12:28;4.50;;;2.53;;
14817;SDS011;7500;57.698;11.986;2022-07-04T07:14:57;4.17;;;2.20;;
14817;SDS011;7500;57.698;11.986;2022-07-04T07:17:24;4.63;;;2.00;;
14817;SDS011;7500;57.698;11.986;2022-07-04T07:19:50;3.23;;;1.80;;
14817;SDS011;7500;57.698;11.986;2022-07-04T07:22:17;5.30;;;2.10;;
14817;SDS011;7500;57.698;11.986;2022-07-04T07:24:44;3.27;;;2.40;;
14817;SDS011;7500;57.698;11.986;2022-07-04T07:27:11;5.90;;;2.33;;
14817;SDS011;7500;57.698;11.986;2022-07-04T07:29:38;5.83;;;2.23;;
14817;SDS011;7500;57.698;11.986;2022-07-04T07:32:07;7.90;;;2.00;;
14817;SDS011;7500;57.698;11.986;2022-07-04T07:34:34;5.43;;;2.27;;
14817;SDS011;7500;57.698;11.986;2022-07-04T07:37:01;5.07;;;1.90;;
14817;SDS011;7500;57.698;11.986;2022-07-04T07:39:28;4.87;;;1.93;;
14817;SDS011;7500;57.698;11.986;2022-07-04T07:41:55;2.30;;;1.40;;
14817;SDS011;7500;57.698;11.986;2022-07-04T07:44:22;5.10;;;1.43;;
14817;SDS011;7500;57.698;11.986;2022-07-04T07:46:49;3.97;;;1.60;;
14817;SDS011;7500;57.698;11.986;2022-07-04T07:49:17;5.83;;;1.50;;
14817;SDS011;7500;57.698;11.986;2022-07-04T07:51:44;4.60;;;1.60;;
14817;SDS011;7500;57.698;11.986;2022-07-04T07:54:11;4.83;;;1.40;;
14817;SDS011;7500;57.698;11.986;2022-07-04T07:56:38;3.37;;;1.27;;
14817;SDS011;7500;57.698;11.986;2022-07-04T07:59:05;2.83;;;1.10;;
14817;SDS011;7500;57.698;11.986;2022-07-04T08:01:32;4.57;;;1.60;;
14817;SDS011;7500;57.698;11.986;2022-07-04T08:03:59;3.10;;;1.50;;
14817;SDS011;7500;57.698;11.986;2022-07-04T08:06:44;5.60;;;1.30;;
14817;SDS011;7500;57.698;11.986;2022-07-04T08:09:11;4.37;;;1.23;;
14817;SDS011;7500;57.698;11.986;2022-07-04T08:11:39;3.10;;;1.10;;
14817;SDS011;7500;57.698;11.986;2022-07-04T08:14:06;4.27;;;1.20;;
14817;SDS011;7500;57.698;11.986;2022-07-04T08:16:33;2.87;;;1.20;;
14817;SDS011;7500;57.698;11.986;2022-07-04T08:19:00;2.93;;;1.30;;
14817;SDS011;7500;57.698;11.986;2022-07-04T08:21:27;3.00;;;1.00;;
14817;SDS011;7500;57.698;11.986;2022-07-04T08:23:55;2.30;;;1.30;;
14817;SDS011;7500;57.698;11.986;2022-07-04T08:26:22;3.33;;;0.97;;
14817;SDS011;7500;57.698;11.986;2022-07-04T08:28:50;1.40;;;1.10;;
14817;SDS011;7500;57.698;11.986;2022-07-04T08:31:17;3.73;;;1.20;;
14817;SDS011;7500;57.698;11.986;2022-07-04T08:33:44;4.70;;;1.30;;
14817;SDS011;7500;57.698;11.986;2022-07-04T08:36:12;2.43;;;0.90;;
14817;SDS011;7500;57.698;11.986;2022-07-04T08:38:39;2.77;;;1.10;;
14817;SDS011;7500;57.698;11.986;2022-07-04T08:41:07;5.00;;;1.13;;
14817;SDS011;7500;57.698;11.986;2022-07-04T08:43:34;2.00;;;1.20;;
14817;SDS011;7500;57.698;11.986;2022-07-04T08:46:03;2.87;;;1.10;;
14817;SDS011;7500;57.698;11.986;2022-07-04T08:48:32;2.73;;;1.10;;
14817;SDS011;7500;57.698;11.986;2022-07-04T08:50:59;3.70;;;0.90;;
14817;SDS011;7500;57.698;11.986;2022-07-04T08:53:32;2.60;;;1.10;;
14817;SDS011;7500;57.698;11.986;2022-07-04T08:56:04;2.47;;;0.90;;
14817;SDS011;7500;57.698;11.986;2022-07-04T08:58:51;2.50;;;0.83;;
14817;SDS011;7500;57.698;11.986;2022-07-04T09:01:20;2.00;;;0.80;;
14817;SDS011;7500;57.698;11.986;2022-07-04T09:03:48;2.60;;;0.70;;
14817;SDS011;7500;57.698;11.986;2022-07-04T09:06:16;3.40;;;1.37;;
14817;SDS011;7500;57.698;11.986;2022-07-04T09:08:43;4.20;;;1.53;;
14817;SDS011;7500;57.698;11.986;2022-07-04T09:11:10;3.37;;;1.30;;
14817;SDS011;7500;57.698;11.986;2022-07-04T09:13:37;1.77;;;0.70;;
14817;SDS011;7500;57.698;11.986;2022-07-04T09:16:05;2.13;;;0.83;;
14817;SDS011;7500;57.698;11.986;2022-07-04T09:18:33;4.73;;;0.80;;
14817;SDS011;7500;57.698;11.986;2022-07-04T09:21:04;2.07;;;0.97;;
14817;SDS011;7500;57.698;11.986;2022-07-04T09:23:33;4.70;;;1.10;;
14817;SDS011;7500;57.698;11.986;2022-07-04T09:26:12;3.50;;;0.90;;
14817;SDS011;7500;57.698;11.986;2022-07-04T09:28:41;3.33;;;0.90;;
14817;SDS011;7500;57.698;11.986;2022-07-04T09:31:17;3.30;;;0.70;;
14817;SDS011;7500;57.698;11.986;2022-07-04T09:33:45;8.00;;;1.50;;
14817;SDS011;7500;57.698;11.986;2022-07-04T09:36:17;1.93;;;1.00;;
14817;SDS011;7500;57.698;11.986;2022-07-04T09:38:45;1.97;;;0.90;;
14817;SDS011;7500;57.698;11.986;2022-07-04T09:41:29;3.93;;;1.37;;
14817;SDS011;7500;57.698;11.986;2022-07-04T09:44:00;2.93;;;1.40;;
14817;SDS011;7500;57.698;11.986;2022-07-04T09:46:29;2.47;;;1.50;;
14817;SDS011;7500;57.698;11.986;2022-07-04T09:48:56;4.13;;;1.47;;
14817;SDS011;7500;57.698;11.986;2022-07-04T09:51:37;3.83;;;1.00;;
14817;SDS011;7500;57.698;11.986;2022-07-04T09:54:15;2.50;;;1.00;;
14817;SDS011;7500;57.698;11.986;2022-07-04T09:56:44;2.47;;;1.10;;
14817;SDS011;7500;57.698;11.986;2022-07-04T09:59:11;1.33;;;1.03;;
14817;SDS011;7500;57.698;11.986;2022-07-04T10:01:40;3.63;;;1.90;;
14817;SDS011;7500;57.698;11.986;2022-07-04T10:04:07;2.27;;;1.10;;
14817;SDS011;7500;57.698;11.986;2022-07-04T10:06:34;2.43;;;1.30;;
14817;SDS011;7500;57.698;11.986;2022-07-04T10:09:08;2.30;;;0.80;;
14817;SDS011;7500;57.698;11.986;2022-07-04T10:11:36;1.70;;;1.33;;
14817;SDS011;7500;57.698;11.986;2022-07-04T10:14:04;2.50;;;1.67;;
14817;SDS011;7500;57.698;11.986;2022-07-04T10:16:33;2.83;;;0.80;;
14817;SDS011;7500;57.698;11.986;2022-07-04T10:19:02;2.63;;;1.13;;
14817;SDS011;7500;57.698;11.986;2022-07-04T10:21:30;2.30;;;1.43;;
14817;SDS011;7500;57.698;11.986;2022-07-04T10:23:57;4.27;;;1.20;;
14817;SDS011;7500;57.698;11.986;2022-07-04T10:26:24;2.33;;;1.87;;
14817;SDS011;7500;57.698;11.986;2022-07-04T10:28:54;4.27;;;1.30;;
14817;SDS011;7500;57.698;11.986;2022-07-04T10:31:22;2.50;;;1.30;;
14817;SDS011;7500;57.698;11.986;2022-07-04T10:33:51;1.57;;;1.20;;
14817;SDS011;7500;57.698;11.986;2022-07-04T10:36:21;2.47;;;1.13;;
14817;SDS011;7500;57.698;11.986;2022-07-04T10:38:53;1.83;;;1.30;;
14817;SDS011;7500;57.698;11.986;2022-07-04T10:41:21;1.50;;;1.30;;
14817;SDS011;7500;57.698;11.986;2022-07-04T10:43:52;1.20;;;1.10;;
14817;SDS011;7500;57.698;11.986;2022-07-04T10:49:26;2.03;;;1.30;;
14817;SDS011;7500;57.698;11.986;2022-07-04T10:51:56;1.57;;;0.93;;
14817;SDS011;7500;57.698;11.986;2022-07-04T10:54:35;3.40;;;1.00;;
14817;SDS011;7500;57.698;11.986;2022-07-04T10:57:10;3.90;;;1.40;;
14817;SDS011;7500;57.698;11.986;2022-07-04T10:59:39;1.13;;;1.00;;
14817;SDS011;7500;57.698;11.986;2022-07-04T11:02:26;2.00;;;1.20;;
14817;SDS011;7500;57.698;11.986;2022-07-04T11:04:58;4.57;;;1.10;;
14817;SDS011;7500;57.698;11.986;2022-07-04T11:10:29;2.37;;;1.20;;
14817;SDS011;7500;57.698;11.986;2022-07-04T11:13:08;1.17;;;1.07;;
14817;SDS011;7500;57.698;11.986;2022-07-04T11:15:58;2.50;;;1.40;;
14817;SDS011;7500;57.698;11.986;2022-07-04T11:18:39;3.10;;;1.23;;
14817;SDS011;7500;57.698;11.986;2022-07-04T11:21:20;2.57;;;1.20;;
14817;SDS011;7500;57.698;11.986;2022-07-04T11:23:50;2.83;;;1.30;;
14817;SDS011;7500;57.698;11.986;2022-07-04T11:26:18;4.33;;;1.23;;
14817;SDS011;7500;57.698;11.986;2022-07-04T11:28:47;4.30;;;1.47;;
14817;SDS011;7500;57.698;11.986;2022-07-04T11:31:14;3.37;;;1.40;;
14817;SDS011;7500;57.698;11.986;2022-07-04T11:33:41;9.23;;;2.60;;
14817;SDS011;7500;57.698;11.986;2022-07-04T11:36:10;4.87;;;2.00;;
14817;SDS011;7500;57.698;11.986;2022-07-04T11:38:43;6.07;;;2.17;;
14817;SDS011;7500;57.698;11.986;2022-07-04T11:41:12;4.47;;;2.00;;
14817;SDS011;7500;57.698;11.986;2022-07-04T11:43:56;7.17;;;2.43;;
14817;SDS011;7500;57.698;11.986;2022-07-04T11:46:41;4.27;;;2.10;;
14817;SDS011;7500;57.698;11.986;2022-07-04T11:49:08;4.27;;;2.20;;
14817;SDS011;7500;57.698;11.986;2022-07-04T11:51:40;8.07;;;2.30;;
14817;SDS011;7500;57.698;11.986;2022-07-04T11:54:08;6.30;;;2.33;;
14817;SDS011;7500;57.698;11.986;2022-07-04T11:56:36;6.53;;;2.50;;
14817;SDS011;7500;57.698;11.986;2022-07-04T11:59:09;7.90;;;2.30;;
14817;SDS011;7500;57.698;11.986;2022-07-04T12:01:37;4.90;;;1.80;;
14817;SDS011;7500;57.698;11.986;2022-07-04T12:04:14;6.53;;;2.23;;
14817;SDS011;7500;57.698;11.986;2022-07-04T12:06:43;4.10;;;2.07;;
14817;SDS011;7500;57.698;11.986;2022-07-04T12:09:11;5.03;;;1.80;;
14817;SDS011;7500;57.698;11.986;2022-07-04T12:11:55;4.70;;;1.40;;
14817;SDS011;7500;57.698;11.986;2022-07-04T12:14:23;2.80;;;1.30;;
14817;SDS011;7500;57.698;11.986;2022-07-04T12:19:53;1.20;;;0.93;;
14817;SDS011;7500;57.698;11.986;2022-07-04T12:22:28;2.27;;;1.00;;
14817;SDS011;7500;57.698;11.986;2022-07-04T12:24:59;2.47;;;0.73;;
14817;SDS011;7500;57.698;11.986;2022-07-04T12:27:29;1.20;;;1.00;;
14817;SDS011;7500;57.698;11.986;2022-07-04T12:29:56;2.17;;;1.30;;
14817;SDS011;7500;57.698;11.986;2022-07-04T12:37:59;1.27;;;0.70;;
14817;SDS011;7500;57.698;11.986;2022-07-04T12:40:27;0.87;;;0.43;;
14817;SDS011;7500;57.698;11.986;2022-07-04T12:42:56;2.40;;;0.90;;
14817;SDS011;7500;57.698;11.986;2022-07-04T12:45:23;2.93;;;0.97;;
14817;SDS011;7500;57.698;11.986;2022-07-04T12:47:50;1.57;;;0.80;;
14817;SDS011;7500;57.698;11.986;2022-07-04T12:50:24;1.47;;;0.77;;
14817;SDS011;7500;57.698;11.986;2022-07-04T12:52:51;1.60;;;0.83;;
14817;SDS011;7500;57.698;11.986;2022-07-04T12:55:18;4.40;;;0.90;;
14817;SDS011;7500;57.698;11.986;2022-07-04T12:57:45;1.13;;;0.40;;
14817;SDS011;7500;57.698;11.986;2022-07-04T13:00:13;2.67;;;0.87;;
14817;SDS011;7500;57.698;11.986;2022-07-04T13:02:41;3.20;;;1.63;;
14817;SDS011;7500;57.698;11.986;2022-07-04T13:05:08;2.73;;;1.20;;
14817;SDS011;7500;57.698;11.986;2022-07-04T13:07:34;2.87;;;1.10;;
14817;SDS011;7500;57.698;11.986;2022-07-04T13:10:01;1.93;;;0.70;;
14817;SDS011;7500;57.698;11.986;2022-07-04T13:12:28;1.30;;;0.77;;
14817;SDS011;7500;57.698;11.986;2022-07-04T13:14:56;2.10;;;0.53;;
14817;SDS011;7500;57.698;11.986;2022-07-04T13:17:26;1.23;;;0.70;;
14817;SDS011;7500;57.698;11.986;2022-07-04T13:19:53;1.27;;;0.70;;
14817;SDS011;7500;57.698;11.986;2022-07-04T13:22:20;0.83;;;0.63;;
14817;SDS011;7500;57.698;11.986;2022-07-04T13:24:48;2.33;;;0.83;;
14817;SDS011;7500;57.698;11.986;2022-07-04T13:27:16;1.70;;;0.73;;
14817;SDS011;7500;57.698;11.986;2022-07-04T13:29:43;3.13;;;1.03;;
14817;SDS011;7500;57.698;11.986;2022-07-04T13:32:10;1.33;;;0.63;;
14817;SDS011;7500;57.698;11.986;2022-07-04T13:34:38;1.70;;;0.77;;
14817;SDS011;7500;57.698;11.986;2022-07-04T13:37:05;2.47;;;0.87;;
14817;SDS011;7500;57.698;11.986;2022-07-04T13:39:32;5.17;;;0.90;;
14817;SDS011;7500;57.698;11.986;2022-07-04T13:42:00;1.80;;;0.70;;
14817;SDS011;7500;57.698;11.986;2022-07-04T13:44:28;4.00;;;0.97;;
14817;SDS011;7500;57.698;11.986;2022-07-04T13:46:55;1.20;;;0.70;;
14817;SDS011;7500;57.698;11.986;2022-07-04T13:49:23;0.80;;;0.60;;
14817;SDS011;7500;57.698;11.986;2022-07-04T13:51:52;2.77;;;0.90;;
14817;SDS011;7500;57.698;11.986;2022-07-04T13:54:19;3.80;;;0.70;;
14817;SDS011;7500;57.698;11.986;2022-07-04T13:56:46;4.00;;;0.80;;
14817;SDS011;7500;57.698;11.986;2022-07-04T13:59:13;0.97;;;0.43;;
14817;SDS011;7500;57.698;11.986;2022-07-04T14:01:40;2.17;;;0.70;;
14817;SDS011;7500;57.698;11.986;2022-07-04T14:04:07;2.03;;;0.67;;
14817;SDS011;7500;57.698;11.986;2022-07-04T14:06:34;4.47;;;1.17;;
14817;SDS011;7500;57.698;11.986;2022-07-04T14:09:02;1.37;;;0.83;;
14817;SDS011;7500;57.698;11.986;2022-07-04T14:11:29;1.27;;;0.90;;
14817;SDS011;7500;57.698;11.986;2022-07-04T14:13:56;1.60;;;0.63;;
14817;SDS011;7500;57.698;11.986;2022-07-04T14:16:23;1.33;;;0.60;;
14817;SDS011;7500;57.698;11.986;2022-07-04T14:18:50;2.90;;;0.80;;
14817;SDS011;7500;57.698;11.986;2022-07-04T14:21:16;1.63;;;0.50;;
14817;SDS011;7500;57.698;11.986;2022-07-04T14:23:43;2.20;;;0.70;;
14817;SDS011;7500;57.698;11.986;2022-07-04T14:26:13;1.40;;;0.70;;
14817;SDS011;7500;57.698;11.986;2022-07-04T14:28:41;2.17;;;0.83;;
14817;SDS011;7500;57.698;11.986;2022-07-04T14:31:09;2.77;;;0.80;;
14817;SDS011;7500;57.698;11.986;2022-07-04T14:33:37;1.93;;;0.90;;
14817;SDS011;7500;57.698;11.986;2022-07-04T14:36:05;1.57;;;1.20;;
14817;SDS011;7500;57.698;11.986;2022-07-04T14:38:33;0.83;;;0.80;;
14817;SDS011;7500;57.698;11.986;2022-07-04T14:41:00;3.70;;;1.63;;
14817;SDS011;7500;57.698;11.986;2022-07-04T14:43:40;1.80;;;0.63;;
14817;SDS011;7500;57.698;11.986;2022-07-04T14:46:08;0.90;;;0.60;;
14817;SDS011;7500;57.698;11.986;2022-07-04T14:48:35;1.23;;;0.80;;
14817;SDS011;7500;57.698;11.986;2022-07-04T14:51:03;1.10;;;0.63;;
14817;SDS011;7500;57.698;11.986;2022-07-04T14:53:31;1.30;;;0.80;;
14817;SDS011;7500;57.698;11.986;2022-07-04T14:55:58;3.10;;;1.00;;
14817;SDS011;7500;57.698;11.986;2022-07-04T14:58:24;1.40;;;1.30;;
14817;SDS011;7500;57.698;11.986;2022-07-04T15:00:53;2.17;;;1.13;;
14817;SDS011;7500;57.698;11.986;2022-07-04T15:03:21;6.10;;;1.50;;
14817;SDS011;7500;57.698;11.986;2022-07-04T15:05:48;22.87;;;1.87;;